sensor_id;sensor_type;location;lat;lon;timestamp;P1;durP1;ratioP1;P2;durP2;ratioP2
36833;SDS011;48003;52.084;5.224;2024-01-06T00:00:18;13.5;;;9.21;;
36833;SDS011;48003;52.084;5.224;2024-01-06T00:03:30;12.8;;;9.1;;
36833;SDS011;48003;52.084;5.224;2024-01-06T00:05:06;12.7;;;9.0;;
36833;SDS011;48003;52.084;5.224;2024-01-06T00:06:43;13.1;;;9.81;;
36833;SDS011;48003;52.084;5.224;2024-01-06T00:09:56;12.8;;;9.0;;
36833;SDS011;48003;52.084;5.224;2024-01-06T00:11:32;15.4;;;9.9;;
36833;SDS011;48003;52.084;5.224;2024-01-06T00:13:09;12.8;;;9.4;;
36833;SDS011;48003;52.084;5.224;2024-01-06T00:14:45;12.4;;;8.71;;
36833;SDS011;48003;52.084;5.224;2024-01-06T00:17:58;13.0;;;9.31;;
36833;SDS011;48003;52.084;5.224;2024-01-06T00:19:37;12.2;;;8.9;;
36833;SDS011;48003;52.084;5.224;2024-01-06T00:21:13;13.1;;;9.21;;
36833;SDS011;48003;52.084;5.224;2024-01-06T00:24:25;13.9;;;8.4;;
36833;SDS011;48003;52.084;5.224;2024-01-06T00:26:01;12.4;;;8.2;;
36833;SDS011;48003;52.084;5.224;2024-01-06T00:27:37;11.8;;;8.5;;
36833;SDS011;48003;52.084;5.224;2024-01-06T00:30:49;11.2;;;7.7;;
36833;SDS011;48003;52.084;5.224;2024-01-06T00:32:25;10.5;;;7.3;;
36833;SDS011;48003;52.084;5.224;2024-01-06T00:34:02;9.81;;;7.1;;
36833;SDS011;48003;52.084;5.224;2024-01-06T00:35:38;12.5;;;7.1;;
36833;SDS011;48003;52.084;5.224;2024-01-06T00:38:50;10.8;;;7.4;;
36833;SDS011;48003;52.084;5.224;2024-01-06T00:40:26;9.81;;;6.9;;
36833;SDS011;48003;52.084;5.224;2024-01-06T00:42:05;10.4;;;7.1;;
36833;SDS011;48003;52.084;5.224;2024-01-06T00:45:18;10.9;;;7.7;;
36833;SDS011;48003;52.084;5.224;2024-01-06T00:46:54;9.5;;;6.3;;
36833;SDS011;48003;52.084;5.224;2024-01-06T00:48:30;9.6;;;6.4;;
36833;SDS011;48003;52.084;5.224;2024-01-06T00:51:44;8.4;;;5.8;;
36833;SDS011;48003;52.084;5.224;2024-01-06T00:53:21;9.31;;;6.2;;
36833;SDS011;48003;52.084;5.224;2024-01-06T00:54:57;9.21;;;5.9;;
36833;SDS011;48003;52.084;5.224;2024-01-06T00:56:33;7.7;;;4.8;;
36833;SDS011;48003;52.084;5.224;2024-01-06T00:59:45;7.7;;;4.8;;
36833;SDS011;48003;52.084;5.224;2024-01-06T01:01:21;6.1;;;4.2;;
36833;SDS011;48003;52.084;5.224;2024-01-06T01:02:57;5.7;;;4.2;;
36833;SDS011;48003;52.084;5.224;2024-01-06T01:06:09;8.4;;;4.91;;
36833;SDS011;48003;52.084;5.224;2024-01-06T01:07:45;6.1;;;4.7;;
36833;SDS011;48003;52.084;5.224;2024-01-06T01:09:22;6.3;;;4.41;;
36833;SDS011;48003;52.084;5.224;2024-01-06T01:12:34;7.1;;;4.8;;
36833;SDS011;48003;52.084;5.224;2024-01-06T01:14:10;8.0;;;5.3;;
36833;SDS011;48003;52.084;5.224;2024-01-06T01:15:46;8.5;;;4.8;;
36833;SDS011;48003;52.084;5.224;2024-01-06T01:17:22;7.1;;;3.8;;
36833;SDS011;48003;52.084;5.224;2024-01-06T01:20:34;6.4;;;3.5;;
36833;SDS011;48003;52.084;5.224;2024-01-06T01:22:10;4.61;;;3.2;;
36833;SDS011;48003;52.084;5.224;2024-01-06T01:23:46;5.5;;;3.3;;
36833;SDS011;48003;52.084;5.224;2024-01-06T01:26:59;4.3;;;3.3;;
36833;SDS011;48003;52.084;5.224;2024-01-06T01:28:35;5.11;;;3.4;;
36833;SDS011;48003;52.084;5.224;2024-01-06T01:30:11;5.11;;;3.7;;
36833;SDS011;48003;52.084;5.224;2024-01-06T01:33:23;5.7;;;3.6;;
36833;SDS011;48003;52.084;5.224;2024-01-06T01:35:00;4.5;;;3.5;;
36833;SDS011;48003;52.084;5.224;2024-01-06T01:36:36;5.3;;;3.4;;
36833;SDS011;48003;52.084;5.224;2024-01-06T01:39:48;4.8;;;3.1;;
36833;SDS011;48003;52.084;5.224;2024-01-06T01:41:25;4.2;;;2.7;;
36833;SDS011;48003;52.084;5.224;2024-01-06T01:43:01;4.2;;;3.1;;
36833;SDS011;48003;52.084;5.224;2024-01-06T01:44:37;5.11;;;3.1;;
36833;SDS011;48003;52.084;5.224;2024-01-06T01:47:49;4.3;;;2.7;;
36833;SDS011;48003;52.084;5.224;2024-01-06T01:49:26;4.3;;;2.7;;
36833;SDS011;48003;52.084;5.224;2024-01-06T01:51:02;4.5;;;3.2;;
36833;SDS011;48003;52.084;5.224;2024-01-06T01:54:17;5.4;;;3.6;;
36833;SDS011;48003;52.084;5.224;2024-01-06T01:55:53;6.0;;;3.8;;
36833;SDS011;48003;52.084;5.224;2024-01-06T01:57:29;6.4;;;3.9;;
36833;SDS011;48003;52.084;5.224;2024-01-06T02:00:48;6.9;;;4.2;;
36833;SDS011;48003;52.084;5.224;2024-01-06T02:02:24;5.7;;;4.0;;
36833;SDS011;48003;52.084;5.224;2024-01-06T02:04:01;7.8;;;4.2;;
36833;SDS011;48003;52.084;5.224;2024-01-06T02:05:37;5.7;;;3.9;;
36833;SDS011;48003;52.084;5.224;2024-01-06T02:08:49;5.3;;;4.0;;
36833;SDS011;48003;52.084;5.224;2024-01-06T02:10:25;6.6;;;4.41;;
36833;SDS011;48003;52.084;5.224;2024-01-06T02:12:05;7.2;;;4.1;;
36833;SDS011;48003;52.084;5.224;2024-01-06T02:15:18;6.3;;;3.5;;
36833;SDS011;48003;52.084;5.224;2024-01-06T02:16:54;3.4;;;2.6;;
36833;SDS011;48003;52.084;5.224;2024-01-06T02:18:31;6.2;;;3.4;;
36833;SDS011;48003;52.084;5.224;2024-01-06T02:20:08;4.7;;;3.5;;
36833;SDS011;48003;52.084;5.224;2024-01-06T02:23:24;4.61;;;3.1;;
36833;SDS011;48003;52.084;5.224;2024-01-06T02:25:00;5.2;;;2.9;;
36833;SDS011;48003;52.084;5.224;2024-01-06T02:26:36;4.3;;;3.0;;
36833;SDS011;48003;52.084;5.224;2024-01-06T02:29:48;4.61;;;2.9;;
36833;SDS011;48003;52.084;5.224;2024-01-06T02:31:24;4.61;;;2.9;;
36833;SDS011;48003;52.084;5.224;2024-01-06T02:33:00;5.8;;;3.2;;
36833;SDS011;48003;52.084;5.224;2024-01-06T02:36:13;5.7;;;3.4;;
36833;SDS011;48003;52.084;5.224;2024-01-06T02:37:49;4.7;;;3.1;;
36833;SDS011;48003;52.084;5.224;2024-01-06T02:39:25;4.7;;;3.1;;
36833;SDS011;48003;52.084;5.224;2024-01-06T02:42:37;5.3;;;3.4;;
36833;SDS011;48003;52.084;5.224;2024-01-06T02:44:13;6.9;;;3.5;;
36833;SDS011;48003;52.084;5.224;2024-01-06T02:45:49;5.5;;;3.4;;
36833;SDS011;48003;52.084;5.224;2024-01-06T02:47:25;6.5;;;3.4;;
36833;SDS011;48003;52.084;5.224;2024-01-06T02:50:37;4.41;;;3.1;;
36833;SDS011;48003;52.084;5.224;2024-01-06T02:52:13;4.91;;;3.3;;
36833;SDS011;48003;52.084;5.224;2024-01-06T02:53:50;5.3;;;3.3;;
36833;SDS011;48003;52.084;5.224;2024-01-06T02:57:02;8.2;;;3.6;;
36833;SDS011;48003;52.084;5.224;2024-01-06T02:58:38;5.8;;;3.4;;
36833;SDS011;48003;52.084;5.224;2024-01-06T03:00:14;4.91;;;3.1;;
36833;SDS011;48003;52.084;5.224;2024-01-06T03:03:27;5.11;;;3.1;;
36833;SDS011;48003;52.084;5.224;2024-01-06T03:05:03;5.3;;;3.1;;
36833;SDS011;48003;52.084;5.224;2024-01-06T03:06:40;4.91;;;3.3;;
36833;SDS011;48003;52.084;5.224;2024-01-06T03:08:20;4.61;;;3.3;;
36833;SDS011;48003;52.084;5.224;2024-01-06T03:11:32;5.7;;;3.5;;
36833;SDS011;48003;52.084;5.224;2024-01-06T03:13:08;5.9;;;3.5;;
36833;SDS011;48003;52.084;5.224;2024-01-06T03:14:44;6.1;;;3.2;;
36833;SDS011;48003;52.084;5.224;2024-01-06T03:17:56;5.9;;;3.6;;
36833;SDS011;48003;52.084;5.224;2024-01-06T03:19:32;5.11;;;3.7;;
36833;SDS011;48003;52.084;5.224;2024-01-06T03:21:16;5.11;;;3.3;;
36833;SDS011;48003;52.084;5.224;2024-01-06T03:24:28;6.9;;;3.3;;
36833;SDS011;48003;52.084;5.224;2024-01-06T03:26:05;5.3;;;3.8;;
36833;SDS011;48003;52.084;5.224;2024-01-06T03:27:41;5.4;;;3.7;;
36833;SDS011;48003;52.084;5.224;2024-01-06T03:29:18;8.31;;;3.8;;
36833;SDS011;48003;52.084;5.224;2024-01-06T03:32:29;5.7;;;4.0;;
36833;SDS011;48003;52.084;5.224;2024-01-06T03:34:05;6.8;;;3.9;;
36833;SDS011;48003;52.084;5.224;2024-01-06T03:35:41;6.7;;;3.8;;
36833;SDS011;48003;52.084;5.224;2024-01-06T03:38:53;5.7;;;4.0;;
36833;SDS011;48003;52.084;5.224;2024-01-06T03:40:29;6.2;;;3.9;;
36833;SDS011;48003;52.084;5.224;2024-01-06T03:42:06;5.3;;;3.9;;
36833;SDS011;48003;52.084;5.224;2024-01-06T03:45:18;5.3;;;4.1;;
36833;SDS011;48003;52.084;5.224;2024-01-06T03:46:54;6.9;;;3.9;;
36833;SDS011;48003;52.084;5.224;2024-01-06T03:48:30;8.71;;;4.2;;
36833;SDS011;48003;52.084;5.224;2024-01-06T03:50:06;5.4;;;4.5;;
36833;SDS011;48003;52.084;5.224;2024-01-06T03:53:22;8.71;;;4.3;;
36833;SDS011;48003;52.084;5.224;2024-01-06T03:54:58;7.7;;;4.3;;
36833;SDS011;48003;52.084;5.224;2024-01-06T03:56:34;6.3;;;4.5;;
36833;SDS011;48003;52.084;5.224;2024-01-06T03:59:46;9.1;;;4.91;;
36833;SDS011;48003;52.084;5.224;2024-01-06T04:01:23;6.9;;;4.3;;
36833;SDS011;48003;52.084;5.224;2024-01-06T04:02:59;9.31;;;4.5;;
36833;SDS011;48003;52.084;5.224;2024-01-06T04:06:11;6.6;;;4.7;;
36833;SDS011;48003;52.084;5.224;2024-01-06T04:07:47;8.31;;;4.41;;
36833;SDS011;48003;52.084;5.224;2024-01-06T04:09:23;6.6;;;4.5;;
36833;SDS011;48003;52.084;5.224;2024-01-06T04:12:35;7.2;;;4.41;;
36833;SDS011;48003;52.084;5.224;2024-01-06T04:14:11;7.2;;;4.61;;
36833;SDS011;48003;52.084;5.224;2024-01-06T04:15:47;7.7;;;4.5;;
36833;SDS011;48003;52.084;5.224;2024-01-06T04:17:24;6.6;;;4.2;;
36833;SDS011;48003;52.084;5.224;2024-01-06T04:20:36;8.0;;;4.61;;
36833;SDS011;48003;52.084;5.224;2024-01-06T04:22:12;8.1;;;4.3;;
36833;SDS011;48003;52.084;5.224;2024-01-06T04:23:48;6.7;;;4.7;;
36833;SDS011;48003;52.084;5.224;2024-01-06T04:27:00;7.2;;;4.3;;
36833;SDS011;48003;52.084;5.224;2024-01-06T04:28:36;6.1;;;4.2;;
36833;SDS011;48003;52.084;5.224;2024-01-06T04:30:13;7.3;;;4.2;;
36833;SDS011;48003;52.084;5.224;2024-01-06T04:33:24;7.8;;;4.5;;
36833;SDS011;48003;52.084;5.224;2024-01-06T04:35:01;6.0;;;4.61;;
36833;SDS011;48003;52.084;5.224;2024-01-06T04:36:37;6.9;;;4.3;;
36833;SDS011;48003;52.084;5.224;2024-01-06T04:38:13;6.2;;;4.41;;
36833;SDS011;48003;52.084;5.224;2024-01-06T04:41:25;6.0;;;4.2;;
36833;SDS011;48003;52.084;5.224;2024-01-06T04:43:01;6.3;;;4.61;;
36833;SDS011;48003;52.084;5.224;2024-01-06T04:44:37;8.81;;;4.7;;
36833;SDS011;48003;52.084;5.224;2024-01-06T04:47:49;8.1;;;4.8;;
36833;SDS011;48003;52.084;5.224;2024-01-06T04:49:25;7.9;;;4.3;;
36833;SDS011;48003;52.084;5.224;2024-01-06T04:51:02;8.9;;;4.91;;
36833;SDS011;48003;52.084;5.224;2024-01-06T04:54:14;8.9;;;5.0;;
36833;SDS011;48003;52.084;5.224;2024-01-06T04:55:50;7.7;;;4.91;;
36833;SDS011;48003;52.084;5.224;2024-01-06T04:57:26;7.7;;;5.4;;
36833;SDS011;48003;52.084;5.224;2024-01-06T05:00:38;9.31;;;5.6;;
36833;SDS011;48003;52.084;5.224;2024-01-06T05:02:14;9.0;;;5.4;;
36833;SDS011;48003;52.084;5.224;2024-01-06T05:03:50;11.3;;;5.8;;
36833;SDS011;48003;52.084;5.224;2024-01-06T05:05:26;8.0;;;5.6;;
36833;SDS011;48003;52.084;5.224;2024-01-06T05:08:39;9.0;;;5.9;;
36833;SDS011;48003;52.084;5.224;2024-01-06T05:10:16;11.5;;;6.5;;
36833;SDS011;48003;52.084;5.224;2024-01-06T05:11:52;9.71;;;6.4;;
36833;SDS011;48003;52.084;5.224;2024-01-06T05:15:04;10.5;;;7.0;;
36833;SDS011;48003;52.084;5.224;2024-01-06T05:16:41;10.7;;;6.7;;
36833;SDS011;48003;52.084;5.224;2024-01-06T05:18:17;10.0;;;6.9;;
36833;SDS011;48003;52.084;5.224;2024-01-06T05:21:30;13.0;;;6.8;;
36833;SDS011;48003;52.084;5.224;2024-01-06T05:23:09;11.9;;;6.8;;
36833;SDS011;48003;52.084;5.224;2024-01-06T05:24:45;12.2;;;6.6;;
36833;SDS011;48003;52.084;5.224;2024-01-06T05:26:22;11.4;;;6.5;;
36833;SDS011;48003;52.084;5.224;2024-01-06T05:29:34;11.3;;;6.6;;
36833;SDS011;48003;52.084;5.224;2024-01-06T05:31:10;9.71;;;6.6;;
36833;SDS011;48003;52.084;5.224;2024-01-06T05:32:46;12.1;;;6.6;;
36833;SDS011;48003;52.084;5.224;2024-01-06T05:35:58;11.3;;;6.8;;
36833;SDS011;48003;52.084;5.224;2024-01-06T05:37:34;12.2;;;6.8;;
36833;SDS011;48003;52.084;5.224;2024-01-06T05:39:10;10.0;;;6.2;;
36833;SDS011;48003;52.084;5.224;2024-01-06T05:42:23;10.8;;;6.5;;
36833;SDS011;48003;52.084;5.224;2024-01-06T05:43:59;10.6;;;5.9;;
36833;SDS011;48003;52.084;5.224;2024-01-06T05:45:35;8.6;;;5.8;;
36833;SDS011;48003;52.084;5.224;2024-01-06T05:48:47;8.4;;;5.8;;
36833;SDS011;48003;52.084;5.224;2024-01-06T05:50:23;10.5;;;5.9;;
36833;SDS011;48003;52.084;5.224;2024-01-06T05:51:59;14.6;;;5.9;;
36833;SDS011;48003;52.084;5.224;2024-01-06T05:53:35;8.6;;;5.6;;
36833;SDS011;48003;52.084;5.224;2024-01-06T05:56:50;9.9;;;5.9;;
36833;SDS011;48003;52.084;5.224;2024-01-06T05:58:26;10.5;;;5.4;;
36833;SDS011;48003;52.084;5.224;2024-01-06T06:00:03;8.9;;;5.5;;
36833;SDS011;48003;52.084;5.224;2024-01-06T06:03:19;10.5;;;5.7;;
36833;SDS011;48003;52.084;5.224;2024-01-06T06:04:55;8.6;;;5.5;;
36833;SDS011;48003;52.084;5.224;2024-01-06T06:06:31;10.21;;;5.9;;
36833;SDS011;48003;52.084;5.224;2024-01-06T06:09:43;10.4;;;5.6;;
36833;SDS011;48003;52.084;5.224;2024-01-06T06:11:19;10.4;;;6.0;;
36833;SDS011;48003;52.084;5.224;2024-01-06T06:12:55;11.3;;;6.3;;
36833;SDS011;48003;52.084;5.224;2024-01-06T06:14:31;9.31;;;6.0;;
36833;SDS011;48003;52.084;5.224;2024-01-06T06:17:46;10.8;;;7.0;;
36833;SDS011;48003;52.084;5.224;2024-01-06T06:19:25;10.4;;;6.8;;
36833;SDS011;48003;52.084;5.224;2024-01-06T06:21:01;12.0;;;7.0;;
36833;SDS011;48003;52.084;5.224;2024-01-06T06:24:13;11.2;;;7.2;;
36833;SDS011;48003;52.084;5.224;2024-01-06T06:25:49;11.6;;;6.9;;
36833;SDS011;48003;52.084;5.224;2024-01-06T06:27:25;13.2;;;7.4;;
36833;SDS011;48003;52.084;5.224;2024-01-06T06:30:38;13.5;;;7.6;;
36833;SDS011;48003;52.084;5.224;2024-01-06T06:32:14;12.3;;;7.0;;
36833;SDS011;48003;52.084;5.224;2024-01-06T06:33:51;14.7;;;8.0;;
36833;SDS011;48003;52.084;5.224;2024-01-06T06:35:27;14.5;;;7.5;;
36833;SDS011;48003;52.084;5.224;2024-01-06T06:38:39;12.0;;;7.2;;
36833;SDS011;48003;52.084;5.224;2024-01-06T06:40:15;12.9;;;7.3;;
36833;SDS011;48003;52.084;5.224;2024-01-06T06:41:51;12.4;;;7.3;;
36833;SDS011;48003;52.084;5.224;2024-01-06T06:45:04;10.3;;;6.7;;
36833;SDS011;48003;52.084;5.224;2024-01-06T06:46:41;10.3;;;6.7;;
36833;SDS011;48003;52.084;5.224;2024-01-06T06:48:18;10.4;;;5.9;;
36833;SDS011;48003;52.084;5.224;2024-01-06T06:51:30;11.4;;;5.8;;
36833;SDS011;48003;52.084;5.224;2024-01-06T06:53:06;9.81;;;5.8;;
36833;SDS011;48003;52.084;5.224;2024-01-06T06:54:43;9.71;;;5.4;;
36833;SDS011;48003;52.084;5.224;2024-01-06T06:56:19;10.21;;;5.3;;
36833;SDS011;48003;52.084;5.224;2024-01-06T06:59:31;8.0;;;4.8;;
36833;SDS011;48003;52.084;5.224;2024-01-06T07:01:07;7.7;;;4.7;;
36833;SDS011;48003;52.084;5.224;2024-01-06T07:02:44;10.1;;;5.5;;
36833;SDS011;48003;52.084;5.224;2024-01-06T07:05:56;9.81;;;5.4;;
36833;SDS011;48003;52.084;5.224;2024-01-06T07:07:32;9.0;;;5.5;;
36833;SDS011;48003;52.084;5.224;2024-01-06T07:09:09;9.1;;;5.3;;
36833;SDS011;48003;52.084;5.224;2024-01-06T07:12:21;8.9;;;5.4;;
36833;SDS011;48003;52.084;5.224;2024-01-06T07:13:57;6.7;;;4.91;;
36833;SDS011;48003;52.084;5.224;2024-01-06T07:15:33;10.3;;;5.5;;
36833;SDS011;48003;52.084;5.224;2024-01-06T07:18:45;7.8;;;5.11;;
36833;SDS011;48003;52.084;5.224;2024-01-06T07:20:21;9.0;;;4.7;;
36833;SDS011;48003;52.084;5.224;2024-01-06T07:21:57;9.0;;;4.8;;
36833;SDS011;48003;52.084;5.224;2024-01-06T07:23:34;8.71;;;5.0;;
36833;SDS011;48003;52.084;5.224;2024-01-06T07:26:47;5.9;;;4.7;;
36833;SDS011;48003;52.084;5.224;2024-01-06T07:28:23;9.4;;;4.8;;
36833;SDS011;48003;52.084;5.224;2024-01-06T07:29:59;8.1;;;4.61;;
36833;SDS011;48003;52.084;5.224;2024-01-06T07:33:12;7.6;;;4.7;;
36833;SDS011;48003;52.084;5.224;2024-01-06T07:34:48;11.3;;;4.91;;
36833;SDS011;48003;52.084;5.224;2024-01-06T07:36:24;8.1;;;5.2;;
36833;SDS011;48003;52.084;5.224;2024-01-06T07:39:36;7.6;;;4.7;;
36833;SDS011;48003;52.084;5.224;2024-01-06T07:41:12;9.21;;;4.91;;
36833;SDS011;48003;52.084;5.224;2024-01-06T07:42:49;8.9;;;5.2;;
36833;SDS011;48003;52.084;5.224;2024-01-06T07:44:25;9.9;;;5.11;;
36833;SDS011;48003;52.084;5.224;2024-01-06T07:47:37;9.1;;;4.91;;
36833;SDS011;48003;52.084;5.224;2024-01-06T07:49:13;8.6;;;4.8;;
36833;SDS011;48003;52.084;5.224;2024-01-06T07:50:49;10.1;;;5.11;;
36833;SDS011;48003;52.084;5.224;2024-01-06T07:54:01;7.6;;;5.3;;
36833;SDS011;48003;52.084;5.224;2024-01-06T07:55:38;7.2;;;5.11;;
36833;SDS011;48003;52.084;5.224;2024-01-06T07:57:14;10.9;;;5.4;;
36833;SDS011;48003;52.084;5.224;2024-01-06T08:00:26;7.9;;;4.8;;
36833;SDS011;48003;52.084;5.224;2024-01-06T08:02:02;8.5;;;5.3;;
36833;SDS011;48003;52.084;5.224;2024-01-06T08:03:38;10.0;;;4.91;;
36833;SDS011;48003;52.084;5.224;2024-01-06T08:06:50;8.31;;;4.8;;
36833;SDS011;48003;52.084;5.224;2024-01-06T08:08:26;10.1;;;4.8;;
36833;SDS011;48003;52.084;5.224;2024-01-06T08:10:03;8.81;;;5.11;;
36833;SDS011;48003;52.084;5.224;2024-01-06T08:11:40;8.1;;;4.91;;
36833;SDS011;48003;52.084;5.224;2024-01-06T08:14:52;8.0;;;4.8;;
36833;SDS011;48003;52.084;5.224;2024-01-06T08:16:28;8.0;;;4.91;;
36833;SDS011;48003;52.084;5.224;2024-01-06T08:21:16;7.9;;;4.8;;
36833;SDS011;48003;52.084;5.224;2024-01-06T08:22:55;10.21;;;4.91;;
36833;SDS011;48003;52.084;5.224;2024-01-06T08:24:31;8.81;;;4.91;;
36833;SDS011;48003;52.084;5.224;2024-01-06T08:27:44;9.4;;;4.61;;
36833;SDS011;48003;52.084;5.224;2024-01-06T08:29:20;9.21;;;5.0;;
36833;SDS011;48003;52.084;5.224;2024-01-06T08:30:55;8.0;;;5.2;;
36833;SDS011;48003;52.084;5.224;2024-01-06T08:32:31;8.0;;;5.2;;
36833;SDS011;48003;52.084;5.224;2024-01-06T08:35:43;8.2;;;5.4;;
36833;SDS011;48003;52.084;5.224;2024-01-06T08:37:19;9.4;;;5.9;;
36833;SDS011;48003;52.084;5.224;2024-01-06T08:38:55;10.4;;;6.1;;
36833;SDS011;48003;52.084;5.224;2024-01-06T08:42:07;10.4;;;6.1;;
36833;SDS011;48003;52.084;5.224;2024-01-06T08:43:43;10.4;;;5.8;;
36833;SDS011;48003;52.084;5.224;2024-01-06T08:45:20;10.21;;;5.4;;
36833;SDS011;48003;52.084;5.224;2024-01-06T08:48:32;9.6;;;5.5;;
36833;SDS011;48003;52.084;5.224;2024-01-06T08:50:08;9.9;;;5.7;;
36833;SDS011;48003;52.084;5.224;2024-01-06T08:51:44;10.5;;;5.6;;
36833;SDS011;48003;52.084;5.224;2024-01-06T08:54:56;11.2;;;5.9;;
36833;SDS011;48003;52.084;5.224;2024-01-06T08:56:33;11.8;;;6.2;;
36833;SDS011;48003;52.084;5.224;2024-01-06T08:58:09;9.1;;;5.7;;
36833;SDS011;48003;52.084;5.224;2024-01-06T08:59:45;9.6;;;6.2;;
36833;SDS011;48003;52.084;5.224;2024-01-06T09:02:58;11.1;;;6.2;;
36833;SDS011;48003;52.084;5.224;2024-01-06T09:04:34;8.2;;;5.7;;
36833;SDS011;48003;52.084;5.224;2024-01-06T09:06:10;13.7;;;6.3;;
36833;SDS011;48003;52.084;5.224;2024-01-06T09:09:22;12.1;;;6.2;;
36833;SDS011;48003;52.084;5.224;2024-01-06T09:10:58;12.1;;;6.2;;
36833;SDS011;48003;52.084;5.224;2024-01-06T09:12:34;11.0;;;6.0;;
36833;SDS011;48003;52.084;5.224;2024-01-06T09:15:46;11.0;;;6.2;;
36833;SDS011;48003;52.084;5.224;2024-01-06T09:17:23;8.6;;;6.0;;
36833;SDS011;48003;52.084;5.224;2024-01-06T09:18:59;9.5;;;6.0;;
36833;SDS011;48003;52.084;5.224;2024-01-06T09:22:11;11.1;;;5.9;;
36833;SDS011;48003;52.084;5.224;2024-01-06T09:23:47;10.0;;;6.0;;
36833;SDS011;48003;52.084;5.224;2024-01-06T09:25:23;11.3;;;6.1;;
36833;SDS011;48003;52.084;5.224;2024-01-06T09:26:59;12.2;;;5.8;;
36833;SDS011;48003;52.084;5.224;2024-01-06T09:30:16;10.21;;;5.6;;
36833;SDS011;48003;52.084;5.224;2024-01-06T09:31:52;11.7;;;5.5;;
36833;SDS011;48003;52.084;5.224;2024-01-06T09:33:29;9.1;;;5.6;;
36833;SDS011;48003;52.084;5.224;2024-01-06T09:36:42;10.1;;;5.5;;
36833;SDS011;48003;52.084;5.224;2024-01-06T09:38:18;10.0;;;4.7;;
36833;SDS011;48003;52.084;5.224;2024-01-06T09:39:54;8.4;;;4.61;;
36833;SDS011;48003;52.084;5.224;2024-01-06T09:43:06;8.81;;;4.61;;
36833;SDS011;48003;52.084;5.224;2024-01-06T09:44:42;9.1;;;4.3;;
36833;SDS011;48003;52.084;5.224;2024-01-06T09:46:21;10.0;;;4.8;;
36833;SDS011;48003;52.084;5.224;2024-01-06T09:48:01;7.7;;;4.5;;
36833;SDS011;48003;52.084;5.224;2024-01-06T09:51:26;10.5;;;4.41;;
36833;SDS011;48003;52.084;5.224;2024-01-06T09:53:02;8.4;;;4.2;;
36833;SDS011;48003;52.084;5.224;2024-01-06T09:54:40;6.5;;;3.8;;
36833;SDS011;48003;52.084;5.224;2024-01-06T09:56:22;7.9;;;3.8;;
36833;SDS011;48003;52.084;5.224;2024-01-06T09:59:38;9.5;;;4.1;;
36833;SDS011;48003;52.084;5.224;2024-01-06T10:01:15;6.1;;;3.6;;
36833;SDS011;48003;52.084;5.224;2024-01-06T10:02:53;6.8;;;3.8;;
36833;SDS011;48003;52.084;5.224;2024-01-06T10:06:08;6.3;;;3.2;;
36833;SDS011;48003;52.084;5.224;2024-01-06T10:07:45;7.6;;;3.7;;
36833;SDS011;48003;52.084;5.224;2024-01-06T10:09:25;4.8;;;3.4;;
36833;SDS011;48003;52.084;5.224;2024-01-06T10:11:03;5.2;;;3.3;;
36833;SDS011;48003;52.084;5.224;2024-01-06T10:14:16;6.5;;;3.5;;
36833;SDS011;48003;52.084;5.224;2024-01-06T10:15:52;8.1;;;3.6;;
36833;SDS011;48003;52.084;5.224;2024-01-06T10:17:29;7.2;;;3.7;;
36833;SDS011;48003;52.084;5.224;2024-01-06T10:20:41;7.6;;;3.6;;
36833;SDS011;48003;52.084;5.224;2024-01-06T10:22:19;7.8;;;3.5;;
36833;SDS011;48003;52.084;5.224;2024-01-06T10:23:55;7.0;;;3.3;;
36833;SDS011;48003;52.084;5.224;2024-01-06T10:25:32;8.0;;;3.7;;
36833;SDS011;48003;52.084;5.224;2024-01-06T10:28:47;8.31;;;3.5;;
36833;SDS011;48003;52.084;5.224;2024-01-06T10:30:24;6.1;;;3.0;;
36833;SDS011;48003;52.084;5.224;2024-01-06T10:32:00;5.7;;;3.0;;
36833;SDS011;48003;52.084;5.224;2024-01-06T10:35:14;7.6;;;3.2;;
36833;SDS011;48003;52.084;5.224;2024-01-06T10:36:50;6.2;;;3.3;;
36833;SDS011;48003;52.084;5.224;2024-01-06T10:38:26;6.9;;;3.4;;
36833;SDS011;48003;52.084;5.224;2024-01-06T10:41:45;6.0;;;3.8;;
36833;SDS011;48003;52.084;5.224;2024-01-06T10:43:25;7.3;;;3.6;;
36833;SDS011;48003;52.084;5.224;2024-01-06T10:45:02;9.31;;;3.5;;
36833;SDS011;48003;52.084;5.224;2024-01-06T10:46:40;8.2;;;3.1;;
36833;SDS011;48003;52.084;5.224;2024-01-06T10:49:57;6.3;;;3.5;;
36833;SDS011;48003;52.084;5.224;2024-01-06T10:51:35;6.3;;;3.8;;
36833;SDS011;48003;52.084;5.224;2024-01-06T10:53:13;6.1;;;3.8;;
36833;SDS011;48003;52.084;5.224;2024-01-06T10:54:50;7.0;;;4.2;;
36833;SDS011;48003;52.084;5.224;2024-01-06T10:58:07;7.9;;;4.2;;
36833;SDS011;48003;52.084;5.224;2024-01-06T10:59:45;5.7;;;3.9;;
36833;SDS011;48003;52.084;5.224;2024-01-06T11:01:25;8.2;;;3.7;;
36833;SDS011;48003;52.084;5.224;2024-01-06T11:04:38;7.6;;;4.41;;
36833;SDS011;48003;52.084;5.224;2024-01-06T11:06:15;7.3;;;3.9;;
36833;SDS011;48003;52.084;5.224;2024-01-06T11:07:53;7.6;;;4.0;;
36833;SDS011;48003;52.084;5.224;2024-01-06T11:09:31;9.6;;;4.3;;
36833;SDS011;48003;52.084;5.224;2024-01-06T11:13:05;8.1;;;4.5;;
36833;SDS011;48003;52.084;5.224;2024-01-06T11:14:43;8.71;;;4.2;;
36833;SDS011;48003;52.084;5.224;2024-01-06T11:16:33;6.9;;;4.2;;
36833;SDS011;48003;52.084;5.224;2024-01-06T11:18:30;7.1;;;4.41;;
36833;SDS011;48003;52.084;5.224;2024-01-06T11:20:07;7.7;;;4.5;;
36833;SDS011;48003;52.084;5.224;2024-01-06T11:23:20;8.71;;;4.61;;
36833;SDS011;48003;52.084;5.224;2024-01-06T11:24:57;10.5;;;4.8;;
36833;SDS011;48003;52.084;5.224;2024-01-06T11:26:42;9.4;;;4.8;;
36833;SDS011;48003;52.084;5.224;2024-01-06T11:28:18;9.81;;;5.2;;
36833;SDS011;48003;52.084;5.224;2024-01-06T11:31:32;8.6;;;5.4;;
36833;SDS011;48003;52.084;5.224;2024-01-06T11:33:08;10.21;;;5.8;;
36833;SDS011;48003;52.084;5.224;2024-01-06T11:34:46;11.4;;;6.3;;
36833;SDS011;48003;52.084;5.224;2024-01-06T11:38:01;11.4;;;6.1;;
36833;SDS011;48003;52.084;5.224;2024-01-06T11:39:37;10.3;;;5.5;;
36833;SDS011;48003;52.084;5.224;2024-01-06T11:41:44;9.5;;;5.9;;
36833;SDS011;48003;52.084;5.224;2024-01-06T11:43:24;11.3;;;6.3;;
36833;SDS011;48003;52.084;5.224;2024-01-06T11:45:03;10.3;;;6.2;;
36833;SDS011;48003;52.084;5.224;2024-01-06T11:48:19;9.71;;;5.8;;
36833;SDS011;48003;52.084;5.224;2024-01-06T11:50:00;8.9;;;6.0;;
36833;SDS011;48003;52.084;5.224;2024-01-06T11:51:38;10.21;;;5.8;;
36833;SDS011;48003;52.084;5.224;2024-01-06T11:54:52;10.21;;;5.8;;
36833;SDS011;48003;52.084;5.224;2024-01-06T11:56:29;10.1;;;5.9;;
36833;SDS011;48003;52.084;5.224;2024-01-06T11:58:05;10.1;;;5.9;;
36833;SDS011;48003;52.084;5.224;2024-01-06T11:59:41;11.7;;;5.6;;
36833;SDS011;48003;52.084;5.224;2024-01-06T12:02:55;9.21;;;5.6;;
36833;SDS011;48003;52.084;5.224;2024-01-06T12:04:32;9.1;;;5.7;;
36833;SDS011;48003;52.084;5.224;2024-01-06T12:06:08;11.0;;;5.8;;
36833;SDS011;48003;52.084;5.224;2024-01-06T12:09:30;9.0;;;5.6;;
36833;SDS011;48003;52.084;5.224;2024-01-06T12:11:06;10.8;;;6.1;;
36833;SDS011;48003;52.084;5.224;2024-01-06T12:12:42;9.1;;;5.7;;
36833;SDS011;48003;52.084;5.224;2024-01-06T12:14:18;10.8;;;5.7;;
36833;SDS011;48003;52.084;5.224;2024-01-06T12:17:30;8.71;;;5.3;;
36833;SDS011;48003;52.084;5.224;2024-01-06T12:19:07;9.31;;;5.4;;
36833;SDS011;48003;52.084;5.224;2024-01-06T12:20:43;9.6;;;5.4;;
36833;SDS011;48003;52.084;5.224;2024-01-06T12:24:11;9.21;;;5.3;;
36833;SDS011;48003;52.084;5.224;2024-01-06T12:25:48;8.6;;;5.6;;
36833;SDS011;48003;52.084;5.224;2024-01-06T12:27:24;9.1;;;5.3;;
36833;SDS011;48003;52.084;5.224;2024-01-06T12:29:00;10.5;;;5.6;;
36833;SDS011;48003;52.084;5.224;2024-01-06T12:32:16;9.1;;;5.6;;
36833;SDS011;48003;52.084;5.224;2024-01-06T12:33:53;11.5;;;5.8;;
36833;SDS011;48003;52.084;5.224;2024-01-06T12:35:29;8.1;;;5.5;;
36833;SDS011;48003;52.084;5.224;2024-01-06T12:38:41;9.5;;;5.6;;
36833;SDS011;48003;52.084;5.224;2024-01-06T12:40:18;7.6;;;5.4;;
36833;SDS011;48003;52.084;5.224;2024-01-06T12:41:55;9.6;;;5.6;;
36833;SDS011;48003;52.084;5.224;2024-01-06T12:43:32;8.31;;;5.4;;
36833;SDS011;48003;52.084;5.224;2024-01-06T12:46:45;10.5;;;5.8;;
36833;SDS011;48003;52.084;5.224;2024-01-06T12:48:21;10.1;;;5.7;;
36833;SDS011;48003;52.084;5.224;2024-01-06T12:49:57;9.81;;;5.6;;
36833;SDS011;48003;52.084;5.224;2024-01-06T12:53:09;8.81;;;5.3;;
36833;SDS011;48003;52.084;5.224;2024-01-06T12:54:46;10.0;;;5.4;;